Terminal Aerodrome Forecast
Issued by NWS Wilmington, OH

Current Version | Previous Version | Text Only | Print | Product List | Glossary Off
Versions: 1 2 3 4 5 6 7 8 9 10 11 12 13 14 15 16 17 18 19 20 21 22 23 24 25 26 27 28 29

000
FTUS41 KILN 250539
TAFCVG
TAF
KCVG 250539Z 2506/2612 20012KT P6SM SCT015 OVC045
     FM251000 25016G32KT P6SM VCSH BKN005 OVC018
     FM251200 26015G20KT P6SM SCT005 BKN020
     FM251500 26013G18KT P6SM SCT022 SCT250
     FM251700 25012KT P6SM SCT250
     FM252200 28005KT P6SM SKC=

USA.gov is the U.S. government's official web portal to all federal, state and local government web resources and services.